Time;durP1;ratioP1;P1;durP2;ratioP2;P2;SDS_P1;SDS_P2;PMS_P1;PMS_P2;Temp;Humidity;BMP_temperature;BMP_pressure;BME280_temperature;BME280_humidity;BME280_pressure;Samples;Min_cycle;Max_cycle;Signal;HPM_P1;HPM_P2
2022/11/22 00:00:13;;;;;;;11.57;4.55;;;;;;;10.66;62.93;99033.19;4904552;29;20443;-70
2022/11/22 00:02:39;;;;;;;12.15;4.82;;;;;;;10.67;63.02;99034.03;4934826;29;20049;-70
2022/11/22 00:05:06;;;;;;;11.00;4.07;;;;;;;10.65;63.33;99031.50;4924611;29;20076;-70
2022/11/22 00:07:33;;;;;;;9.05;4.35;;;;;;;10.65;63.02;99034.19;4919290;29;20044;-69
2022/11/22 00:09:59;;;;;;;11.50;5.65;;;;;;;10.67;63.22;99037.56;4919345;29;20494;-69
2022/11/22 00:12:26;;;;;;;9.48;4.32;;;;;;;10.68;63.31;99036.56;4922865;29;20048;-69
2022/11/22 00:14:52;;;;;;;10.48;4.53;;;;;;;10.68;63.00;99036.56;4937107;29;20107;-69
2022/11/22 00:17:22;;;;;;;11.70;4.85;;;;;;;10.69;63.16;99040.94;4933099;29;20056;-69
2022/11/22 00:19:49;;;;;;;13.43;4.60;;;;;;;10.72;63.22;99039.78;4902302;29;20044;-69
2022/11/22 00:22:15;;;;;;;11.25;4.20;;;;;;;10.72;63.22;99047.84;4902407;29;20414;-69
2022/11/22 00:24:43;;;;;;;12.90;4.57;;;;;;;10.74;63.33;99040.47;4918557;29;20048;-69
2022/11/22 00:27:09;;;;;;;14.00;5.10;;;;;;;10.73;63.13;99036.09;4918756;29;20044;-69
2022/11/22 00:29:36;;;;;;;9.82;4.60;;;;;;;10.73;63.13;99039.63;4901391;29;20513;-69
2022/11/22 00:32:02;;;;;;;11.32;4.60;;;;;;;10.74;63.02;99043.16;4919060;29;20558;-70
2022/11/22 00:34:29;;;;;;;12.07;4.85;;;;;;;10.75;63.06;99045.69;4936681;29;20046;-69
2022/11/22 00:36:56;;;;;;;11.25;5.00;;;;;;;10.77;63.51;99038.31;4936753;29;20402;-70
2022/11/22 00:39:22;;;;;;;10.55;4.97;;;;;;;10.79;63.42;99043.53;4937856;29;20059;-69
2022/11/22 00:41:49;;;;;;;11.18;5.05;;;;;;;10.82;63.33;99048.59;4914925;29;20055;-70
2022/11/22 00:44:15;;;;;;;12.52;5.75;;;;;;;10.80;63.42;99046.06;4904784;29;20036;-69
2022/11/22 00:46:42;;;;;;;12.02;5.03;;;;;;;10.85;63.41;99042.09;4920684;29;20403;-69
2022/11/22 00:49:08;;;;;;;13.57;5.93;;;;;;;10.85;63.34;99050.13;4919659;29;20047;-70
2022/11/22 00:51:35;;;;;;;13.20;6.00;;;;;;;10.87;63.52;99043.63;4934487;29;20497;-71
2022/11/22 00:54:01;;;;;;;11.07;5.22;;;;;;;10.90;63.26;99047.84;4935051;29;20054;-70
2022/11/22 00:56:28;;;;;;;11.38;6.07;;;;;;;10.91;63.08;99049.53;4915047;29;20040;-69
2022/11/22 00:58:55;;;;;;;9.25;5.20;;;;;;;10.94;63.67;99049.22;4927444;29;20441;-69
2022/11/22 01:01:21;;;;;;;11.98;5.28;;;;;;;10.95;63.26;99046.38;4926526;29;20100;-69
2022/11/22 01:03:48;;;;;;;16.35;4.97;;;;;;;10.94;63.25;99049.22;4916927;29;20483;-69
2022/11/22 01:06:14;;;;;;;11.23;5.30;;;;;;;10.95;63.34;99050.91;4921877;29;20046;-69
2022/11/22 01:08:41;;;;;;;10.88;5.20;;;;;;;10.97;63.30;99054.28;4919185;29;20122;-69
2022/11/22 01:11:08;;;;;;;8.88;4.93;;;;;;;10.99;63.50;99050.44;4937075;29;20378;-69
2022/11/22 01:13:34;;;;;;;11.30;5.15;;;;;;;10.99;63.54;99045.06;4935857;29;20051;-70
2022/11/22 01:16:03;;;;;;;10.23;5.43;;;;;;;10.99;63.56;99045.06;4935084;29;20103;-69
2022/11/22 01:18:31;;;;;;;13.30;5.60;;;;;;;10.99;63.38;99044.22;4937332;29;20063;-69
2022/11/22 01:20:58;;;;;;;12.35;5.43;;;;;;;11.01;63.42;99043.06;4936323;29;20046;-69
2022/11/22 01:23:25;;;;;;;10.90;5.30;;;;;;;11.01;63.28;99037.69;4935683;29;20044;-69
2022/11/22 01:25:52;;;;;;;10.68;5.68;;;;;;;11.04;63.28;99041.91;4917944;29;20060;-69
2022/11/22 01:28:18;;;;;;;12.77;5.28;;;;;;;11.05;63.42;99043.59;4902104;29;20398;-69
2022/11/22 01:30:50;;;;;;;10.57;5.43;;;;;;;11.06;63.16;99038.06;4900143;29;20498;-69
2022/11/22 01:33:17;;;;;;;13.32;5.30;;;;;;;11.03;63.08;99037.53;4917789;29;20081;-69
2022/11/22 01:35:44;;;;;;;8.27;4.63;;;;;;;11.01;62.92;99039.53;4930593;29;20396;-70
2022/11/22 01:38:10;;;;;;;11.88;5.05;;;;;;;10.98;63.05;99038.00;4936461;29;20048;-70
2022/11/22 01:40:37;;;;;;;8.15;5.25;;;;;;;10.97;63.34;99038.16;4908561;29;20040;-69
2022/11/22 01:43:15;;;;;;;9.98;5.40;;;;;;;10.99;63.18;99044.22;4922148;29;20095;-69
2022/11/22 01:45:44;;;;;;;10.63;5.22;;;;;;;11.00;63.11;99054.81;4911389;29;20059;-69
2022/11/22 01:48:11;;;;;;;9.70;4.97;;;;;;;11.01;63.00;99055.66;4925230;29;20048;-70
2022/11/22 01:50:41;;;;;;;11.88;5.53;;;;;;;10.97;62.83;99060.50;4917593;29;20040;-69
2022/11/22 01:53:13;;;;;;;12.57;5.07;;;;;;;10.95;62.85;99062.47;4898698;29;20052;-70
2022/11/22 01:55:41;;;;;;;8.30;4.72;;;;;;;10.92;62.76;99062.78;4898652;29;20515;-70
2022/11/22 01:58:09;;;;;;;10.30;4.60;;;;;;;10.87;62.67;99064.25;4914952;29;20512;-70
2022/11/22 02:00:37;;;;;;;7.70;4.30;;;;;;;10.82;62.75;99072.78;4930724;29;20091;-70
2022/11/22 02:03:08;;;;;;;12.25;4.72;;;;;;;10.77;62.71;99064.34;4902392;29;20493;-71
2022/11/22 02:05:35;;;;;;;9.05;4.40;;;;;;;10.76;62.59;99063.50;4934278;29;20052;-69
2022/11/22 02:08:14;;;;;;;9.15;4.30;;;;;;;10.74;62.53;99070.84;4933850;29;20044;-69
2022/11/22 02:10:48;;;;;;;15.00;4.80;;;;;;;10.68;62.77;99071.47;4936269;29;20039;-69
2022/11/22 02:13:16;;;;;;;11.35;4.53;;;;;;;10.67;62.58;99074.31;4935665;29;20508;-69
2022/11/22 02:15:43;;;;;;;10.95;3.88;;;;;;;10.64;62.76;99075.47;4920900;29;20048;-70
2022/11/22 02:18:10;;;;;;;7.10;3.72;;;;;;;10.62;62.82;99077.44;4926096;29;20047;-70
2022/11/22 02:20:38;;;;;;;10.32;4.30;;;;;;;10.60;62.72;99083.97;4936240;29;20051;-70
2022/11/22 02:23:09;;;;;;;10.32;3.88;;;;;;;10.60;62.94;99076.75;4935733;29;20043;-70
2022/11/22 02:25:36;;;;;;;9.55;3.65;;;;;;;10.60;62.90;99079.44;4933784;29;20379;-70
2022/11/22 02:28:03;;;;;;;11.15;4.00;;;;;;;10.57;62.92;99082.44;4929924;29;20040;-69
2022/11/22 02:30:30;;;;;;;12.23;3.85;;;;;;;10.54;62.77;99074.69;4915630;29;20099;-70
2022/11/22 02:32:56;;;;;;;11.27;3.67;;;;;;;10.55;62.67;99070.16;4930894;29;20091;-70
2022/11/22 02:35:25;;;;;;;12.65;3.65;;;;;;;10.52;62.78;99068.63;4916674;29;20422;-71
2022/11/22 02:38:08;;;;;;;12.23;4.18;;;;;;;10.50;62.89;99084.03;4933954;29;20047;-70
2022/11/22 02:40:52;;;;;;;11.95;3.95;;;;;;;10.53;62.95;99090.94;4936089;29;20054;-69
2022/11/22 02:43:25;;;;;;;11.82;3.40;;;;;;;10.55;62.75;99079.06;4919460;29;20119;-70
2022/11/22 02:45:52;;;;;;;11.05;3.53;;;;;;;10.56;62.86;99079.91;4907707;29;20043;-70
2022/11/22 02:48:19;;;;;;;12.80;3.50;;;;;;;10.54;62.89;99082.72;4918637;29;20104;-70
2022/11/22 02:50:46;;;;;;;14.98;4.57;;;;;;;10.55;62.68;99080.91;4934919;29;20062;-69
2022/11/22 02:53:13;;;;;;;12.82;3.83;;;;;;;10.53;62.75;99086.41;4920548;29;20055;-71
2022/11/22 02:55:39;;;;;;;10.20;3.85;;;;;;;10.52;63.08;99092.78;4932263;29;20054;-70
2022/11/22 02:58:06;;;;;;;9.05;3.53;;;;;;;10.50;62.88;99095.63;4908246;29;20036;-70
2022/11/22 03:00:35;;;;;;;13.07;3.92;;;;;;;10.50;62.89;99095.63;4922088;29;20040;-70
2022/11/22 03:03:02;;;;;;;10.27;3.33;;;;;;;10.50;63.06;99094.78;4931159;29;20048;-69
2022/11/22 03:05:28;;;;;;;12.20;3.60;;;;;;;10.49;62.74;99101.97;4912270;29;20055;-69
2022/11/22 03:07:55;;;;;;;16.95;4.00;;;;;;;10.49;63.08;99096.59;4899964;29;20041;-69
2022/11/22 03:10:21;;;;;;;12.48;3.38;;;;;;;10.47;63.03;99098.59;4915080;29;20040;-69
2022/11/22 03:12:48;;;;;;;13.02;3.72;;;;;;;10.46;62.98;99093.38;4901849;29;20104;-69
2022/11/22 03:15:14;;;;;;;10.63;3.72;;;;;;;10.43;62.89;99099.06;4909981;29;20095;-69
2022/11/22 03:17:41;;;;;;;12.98;3.40;;;;;;;10.43;62.85;99099.91;4920164;29;20044;-70
2022/11/22 03:20:08;;;;;;;15.27;3.70;;;;;;;10.43;62.85;99105.25;4903187;29;20096;-69
2022/11/22 03:22:35;;;;;;;15.10;3.80;;;;;;;10.41;62.52;99104.56;4902218;29;20048;-69
2022/11/22 03:25:01;;;;;;;11.40;3.70;;;;;;;10.39;62.90;99103.00;4926017;29;20036;-69
2022/11/22 03:27:28;;;;;;;14.98;3.80;;;;;;;10.38;62.82;99109.38;4900305;29;20100;-69
2022/11/22 03:29:58;;;;;;;13.90;4.10;;;;;;;10.38;62.85;99106.69;4886797;29;20048;-70
2022/11/22 03:32:24;;;;;;;12.38;3.83;;;;;;;10.33;62.74;99112.50;4936758;29;20106;-69
2022/11/22 03:34:50;;;;;;;10.07;4.20;;;;;;;10.31;62.55;99111.81;4932471;29;20040;-70
2022/11/22 03:37:17;;;;;;;11.15;3.55;;;;;;;10.30;62.66;99115.47;4919081;29;20479;-69
2022/11/22 03:39:44;;;;;;;14.50;4.05;;;;;;;10.30;62.46;99115.47;4919845;29;20044;-69
2022/11/22 03:42:10;;;;;;;13.13;3.72;;;;;;;10.30;62.57;99123.53;4919651;29;20414;-69
2022/11/22 03:44:42;;;;;;;13.23;3.30;;;;;;;10.30;62.63;99125.38;4920874;29;20036;-69
2022/11/22 03:47:08;;;;;;;10.80;2.83;;;;;;;10.28;62.79;99130.88;4917752;29;20063;-69
2022/11/22 03:49:35;;;;;;;10.05;3.20;;;;;;;10.24;62.58;99126.81;4901431;29;20045;-69
2022/11/22 03:52:01;;;;;;;11.55;3.75;;;;;;;10.21;62.42;99126.25;4907056;29;20099;-69
2022/11/22 03:54:28;;;;;;;17.90;4.38;;;;;;;10.18;62.44;99132.72;4919140;29;20490;-69
2022/11/22 03:56:54;;;;;;;12.63;3.53;;;;;;;10.13;62.46;99125.13;4902592;29;20458;-69
2022/11/22 03:59:21;;;;;;;15.27;3.67;;;;;;;10.13;62.32;99129.66;4918827;29;20040;-68
2022/11/22 04:01:47;;;;;;;13.45;3.53;;;;;;;10.11;62.27;99134.31;4925197;29;20466;-69
2022/11/22 04:04:14;;;;;;;18.10;3.80;;;;;;;10.09;62.24;99137.16;4924839;29;20077;-69
2022/11/22 04:06:40;;;;;;;16.77;3.25;;;;;;;10.09;62.23;99131.78;4919218;29;20032;-70
2022/11/22 04:09:07;;;;;;;10.77;3.65;;;;;;;10.09;62.20;99141.66;4918917;29;20100;-68
2022/11/22 04:11:34;;;;;;;11.63;3.67;;;;;;;10.09;62.50;99141.66;4919474;29;20095;-69
2022/11/22 04:16:45;;;;;;;10.63;2.90;;;;;;;10.04;61.92;99142.09;4900536;29;20049;-69
2022/11/22 04:19:12;;;;;;;12.63;3.47;;;;;;;9.99;62.23;99149.75;4936737;29;20047;-69
2022/11/22 04:21:38;;;;;;;8.40;3.67;;;;;;;9.98;62.15;99158.78;4921099;29;20052;-70
2022/11/22 04:26:53;;;;;;;10.82;3.00;;;;;;;9.96;62.16;99149.19;4935753;29;20493;-69
2022/11/22 04:29:20;;;;;;;12.25;3.22;;;;;;;9.94;62.06;99154.72;4938017;29;20134;-69
2022/11/22 04:34:33;;;;;;;13.00;3.30;;;;;;;9.84;61.93;99156.56;4888617;29;20076;-69
2022/11/22 04:37:01;;;;;;;11.77;3.85;;;;;;;9.80;62.06;99160.53;4937808;29;20063;-70
2022/11/22 04:39:27;;;;;;;14.75;3.08;;;;;;;9.74;61.79;99155.75;4900280;29;20083;-70
2022/11/22 04:44:41;;;;;;;;;;;;;;;9.69;61.81;99163.38;4908168;29;20096;-69
2022/11/22 04:47:09;;;;;;;15.75;3.42;;;;;;;9.69;61.82;99164.22;4914436;29;19931;-69
2022/11/22 04:49:35;;;;;;;8.93;3.35;;;;;;;9.68;62.11;99173.25;4937182;29;20047;-69
2022/11/22 04:54:48;;;;;;;15.75;3.47;;;;;;;9.60;61.91;99180.31;4936727;29;20048;-70
2022/11/22 04:57:15;;;;;;;11.35;3.40;;;;;;;9.56;62.00;99180.59;4928714;29;20520;-70
2022/11/22 04:59:42;;;;;;;11.43;3.20;;;;;;;9.53;62.00;99183.56;4912065;29;20084;-70
2022/11/22 05:02:08;;;;;;;11.50;2.97;;;;;;;9.48;61.88;99177.78;4923053;29;20040;-69
2022/11/22 05:04:35;;;;;;;8.80;2.67;;;;;;;9.47;61.86;99169.88;4927121;29;20086;-69
2022/11/22 05:07:01;;;;;;;9.50;2.80;;;;;;;9.43;61.99;99163.13;4903706;29;20485;-70
2022/11/22 05:09:28;;;;;;;13.95;3.25;;;;;;;9.41;62.02;99170.47;4908881;29;20040;-69
2022/11/22 05:11:55;;;;;;;10.57;3.22;;;;;;;9.41;61.95;99165.09;4900651;29;20067;-69
2022/11/22 05:14:21;;;;;;;12.93;2.95;;;;;;;9.38;61.92;99168.06;4897596;29;20048;-71
2022/11/22 05:16:48;;;;;;;8.63;2.85;;;;;;;9.36;61.88;99168.19;4898477;29;20048;-70
2022/11/22 05:19:14;;;;;;;9.27;3.25;;;;;;;9.34;62.07;99175.53;4899363;29;20055;-70
2022/11/22 05:21:41;;;;;;;9.55;2.47;;;;;;;9.36;61.90;99184.28;4882367;29;20056;-71
2022/11/22 05:24:07;;;;;;;11.98;3.15;;;;;;;9.33;61.93;99187.25;4916115;29;20032;-69
2022/11/22 05:26:35;;;;;;;12.77;2.95;;;;;;;9.30;61.73;99175.97;4900331;29;20112;-70
2022/11/22 05:29:07;;;;;;;11.38;3.30;;;;;;;9.26;61.95;99183.44;4917398;29;20509;-70
2022/11/22 05:31:35;;;;;;;14.48;3.35;;;;;;;9.23;61.66;99181.03;4916795;29;20049;-69
2022/11/22 05:34:03;;;;;;;13.63;4.05;;;;;;;9.24;61.55;99182.72;4913636;29;20514;-69
2022/11/22 05:36:32;;;;;;;10.38;3.28;;;;;;;9.23;61.74;99181.03;4898953;29;20044;-70
2022/11/22 05:38:58;;;;;;;16.80;3.85;;;;;;;9.21;61.71;99186.53;4898860;29;20040;-69
2022/11/22 05:41:25;;;;;;;12.43;3.42;;;;;;;9.20;61.92;99184.84;4898753;29;20041;-69
2022/11/22 05:43:54;;;;;;;16.55;3.60;;;;;;;9.19;61.74;99187.66;4899424;29;20127;-68
2022/11/22 05:46:25;;;;;;;13.18;3.55;;;;;;;9.15;61.65;99184.41;4917017;29;20558;-69
2022/11/22 05:48:53;;;;;;;17.55;4.50;;;;;;;9.14;61.65;99182.72;4917030;29;20111;-70
2022/11/22 05:51:22;;;;;;;19.70;4.50;;;;;;;9.13;61.83;99186.41;4900924;29;20130;-69
2022/11/22 05:53:51;;;;;;;14.35;4.18;;;;;;;9.11;61.76;99179.50;4926328;29;20048;-70
2022/11/22 05:56:20;;;;;;;18.30;5.07;;;;;;;9.04;61.87;99165.81;4885655;29;20037;-69
2022/11/22 05:58:47;;;;;;;11.77;3.72;;;;;;;9.04;61.76;99173.00;4923649;29;20040;-70
2022/11/22 06:01:17;;;;;;;15.63;4.05;;;;;;;9.03;61.75;99171.31;4936254;29;20076;-71
2022/11/22 06:03:44;;;;;;;15.13;3.88;;;;;;;9.01;61.79;99174.13;4920100;29;20059;-71
2022/11/22 06:06:11;;;;;;;18.88;4.15;;;;;;;8.98;61.60;99179.75;4913481;29;20037;-70
2022/11/22 06:08:40;;;;;;;14.80;4.43;;;;;;;8.97;61.73;99185.25;4898464;29;20041;-70
2022/11/22 06:11:15;;;;;;;16.67;3.72;;;;;;;8.95;61.74;99181.88;4920805;29;20051;-70
2022/11/22 06:13:43;;;;;;;18.90;4.15;;;;;;;8.94;61.78;99182.84;4916076;29;20489;-69
2022/11/22 06:16:10;;;;;;;17.20;3.97;;;;;;;8.89;61.58;99191.28;4881707;29;20049;-69
2022/11/22 06:18:37;;;;;;;15.95;3.95;;;;;;;8.87;61.68;99193.25;4913312;29;20050;-70
2022/11/22 06:21:06;;;;;;;9.20;2.97;;;;;;;8.86;61.80;99196.91;4919388;29;20076;-70
2022/11/22 06:23:33;;;;;;;13.85;3.03;;;;;;;8.84;61.80;99202.41;4935543;29;20043;-69
2022/11/22 06:26:05;;;;;;;10.50;2.80;;;;;;;8.84;61.69;99198.88;4934665;29;20047;-69
2022/11/22 06:28:34;;;;;;;10.70;3.17;;;;;;;8.82;61.67;99201.69;4922146;29;20573;-69
2022/11/22 06:31:05;;;;;;;9.63;2.53;;;;;;;8.82;61.71;99198.16;4906532;29;20053;-69
2022/11/22 06:33:33;;;;;;;9.95;2.55;;;;;;;8.79;61.65;99191.25;4898135;29;20139;-69
2022/11/22 06:36:09;;;;;;;15.57;3.13;;;;;;;8.76;61.68;99186.19;4931043;29;20453;-70
2022/11/22 06:38:37;;;;;;;14.93;2.88;;;;;;;8.74;61.56;99188.16;4917486;29;20099;-69
2022/11/22 06:41:06;;;;;;;12.57;2.53;;;;;;;8.72;61.70;99198.16;4916811;29;20095;-70
2022/11/22 06:43:34;;;;;;;11.80;2.97;;;;;;;8.72;61.70;99200.81;4916380;29;20450;-69
2022/11/22 06:46:02;;;;;;;11.52;2.60;;;;;;;8.73;61.67;99197.16;4929042;29;20459;-70
2022/11/22 06:48:31;;;;;;;13.45;3.10;;;;;;;8.74;61.78;99192.66;4899752;29;20432;-70
2022/11/22 06:51:00;;;;;;;13.32;3.30;;;;;;;8.74;61.93;99196.19;4917326;29;20104;-70
2022/11/22 06:53:31;;;;;;;11.20;2.63;;;;;;;8.72;61.68;99197.31;4914909;29;20062;-70
2022/11/22 06:56:23;;;;;;;8.70;2.90;;;;;;;8.69;61.81;99205.59;4928300;29;20054;-70
2022/11/22 06:58:51;;;;;;;9.98;3.00;;;;;;;8.68;61.56;99212.78;4910117;29;20060;-69
2022/11/22 07:01:23;;;;;;;12.07;3.40;;;;;;;8.67;61.69;99213.78;4902805;29;20036;-69
2022/11/22 07:03:54;;;;;;;13.48;3.13;;;;;;;8.65;61.72;99209.53;4924053;29;20052;-70
2022/11/22 07:06:21;;;;;;;7.88;3.03;;;;;;;8.65;61.71;99223.75;4897943;29;20036;-69
2022/11/22 07:08:47;;;;;;;7.30;2.78;;;;;;;8.63;61.68;99225.72;4915342;29;20087;-70
2022/11/22 07:11:17;;;;;;;13.23;3.08;;;;;;;8.62;61.66;99226.72;4918878;29;20050;-70
2022/11/22 07:13:44;;;;;;;11.80;2.50;;;;;;;8.60;61.56;99229.53;4918252;29;20051;-71
2022/11/22 07:16:13;;;;;;;10.90;2.95;;;;;;;8.58;61.63;99228.81;4916363;29;20075;-70
2022/11/22 07:18:40;;;;;;;15.32;3.85;;;;;;;8.56;61.71;99240.63;4902475;29;20046;-70
2022/11/22 07:21:09;;;;;;;11.68;3.70;;;;;;;8.54;61.76;99243.44;4935539;29;20048;-70
2022/11/22 07:23:41;;;;;;;12.52;3.20;;;;;;;8.53;61.51;99239.06;4919016;29;20046;-69
2022/11/22 07:26:08;;;;;;;15.30;3.80;;;;;;;8.52;61.69;99242.75;4934111;29;20039;-69
2022/11/22 07:28:36;;;;;;;8.02;2.92;;;;;;;8.50;61.60;99247.38;4919887;29;20051;-69
2022/11/22 07:31:05;;;;;;;10.07;2.80;;;;;;;8.53;61.71;99251.63;4897145;29;20439;-69
2022/11/22 07:33:32;;;;;;;11.88;3.33;;;;;;;8.55;62.09;99247.81;4910104;29;20467;-69
2022/11/22 07:36:07;;;;;;;11.15;3.45;;;;;;;8.60;61.87;99255.44;4911801;29;20394;-69
2022/11/22 07:38:34;;;;;;;7.32;2.65;;;;;;;8.65;61.96;99249.69;4895697;29;20036;-70
2022/11/22 07:41:01;;;;;;;10.30;3.00;;;;;;;8.67;62.13;99253.91;4930847;29;20050;-70
2022/11/22 07:43:28;;;;;;;9.63;2.85;;;;;;;8.72;62.08;99265.06;4934000;29;20044;-70
2022/11/22 07:46:02;;;;;;;17.98;3.78;;;;;;;8.79;62.16;99271.56;4887954;29;20060;-69
2022/11/22 07:48:29;;;;;;;8.48;3.08;;;;;;;8.85;62.26;99259.47;4912645;29;20044;-67
2022/11/22 07:50:56;;;;;;;11.95;3.08;;;;;;;8.89;62.22;99260.88;4920648;29;20051;-69
2022/11/22 07:53:22;;;;;;;12.02;3.35;;;;;;;8.93;62.35;99272.19;4928666;29;20509;-69
2022/11/22 07:55:49;;;;;;;10.85;2.92;;;;;;;8.97;62.39;99266.44;4911939;29;20040;-69
2022/11/22 07:58:16;;;;;;;13.98;3.00;;;;;;;9.01;62.37;99262.50;4901922;29;20055;-69
2022/11/22 08:00:42;;;;;;;16.50;4.45;;;;;;;9.05;62.28;99261.22;4919493;29;20040;-69
2022/11/22 08:03:09;;;;;;;9.27;2.75;;;;;;;9.11;62.40;99262.50;4919403;29;20047;-69
2022/11/22 08:05:41;;;;;;;11.48;3.17;;;;;;;9.15;62.11;99267.44;4917753;29;20064;-69
2022/11/22 08:08:07;;;;;;;8.82;3.00;;;;;;;9.17;62.17;99267.31;4902534;29;20431;-69
2022/11/22 08:10:34;;;;;;;7.28;3.08;;;;;;;9.20;62.44;99267.88;4919351;29;20044;-69
2022/11/22 08:13:00;;;;;;;11.30;3.00;;;;;;;9.24;62.19;99263.09;4919216;29;20040;-70
2022/11/22 08:15:27;;;;;;;11.55;3.03;;;;;;;9.27;62.36;99270.84;4919289;29;20050;-69
2022/11/22 08:17:53;;;;;;;11.73;2.97;;;;;;;9.30;62.24;99257.19;4918229;29;20409;-69
2022/11/22 08:20:20;;;;;;;11.25;3.20;;;;;;;9.32;62.40;99268.59;4919002;29;20048;-69
2022/11/22 08:22:47;;;;;;;7.60;2.95;;;;;;;9.37;62.31;99271.69;4919216;29;20079;-69
2022/11/22 08:25:13;;;;;;;11.90;2.97;;;;;;;9.42;62.11;99280.16;4918156;29;20495;-69
2022/11/22 08:27:41;;;;;;;9.52;3.17;;;;;;;9.44;62.30;99270.16;4934952;29;20055;-69
2022/11/22 08:30:09;;;;;;;12.18;3.13;;;;;;;9.45;62.13;99276.38;4937999;29;20044;-69
2022/11/22 08:32:36;;;;;;;10.10;2.60;;;;;;;9.49;62.14;99272.41;4920365;29;20055;-69
2022/11/22 08:35:03;;;;;;;10.52;3.15;;;;;;;9.51;61.99;99271.28;4937918;29;20047;-69
2022/11/22 08:37:30;;;;;;;13.30;3.10;;;;;;;9.52;62.02;99264.09;4919692;29;20046;-68
2022/11/22 08:39:57;;;;;;;11.73;3.40;;;;;;;9.57;62.14;99265.38;4918715;29;20520;-68
2022/11/22 08:42:23;;;;;;;10.70;2.78;;;;;;;9.60;61.93;99268.75;4918514;29;20055;-69
2022/11/22 08:44:50;;;;;;;12.88;3.50;;;;;;;9.62;62.14;99270.28;4917708;29;20099;-69
2022/11/22 08:47:16;;;;;;;11.32;3.00;;;;;;;9.65;62.07;99269.16;4936059;29;20627;-69
2022/11/22 08:49:43;;;;;;;7.38;2.83;;;;;;;9.65;62.19;99269.16;4937820;29;20054;-68
2022/11/22 08:52:09;;;;;;;13.25;2.83;;;;;;;9.69;61.99;99275.97;4920238;29;20106;-69
2022/11/22 08:54:36;;;;;;;9.43;3.05;;;;;;;9.72;62.02;99278.38;4919787;29;20095;-69
2022/11/22 08:57:04;;;;;;;9.70;3.13;;;;;;;9.79;62.12;99276.81;4935888;29;20050;-68
2022/11/22 08:59:30;;;;;;;8.27;2.67;;;;;;;9.86;61.83;99277.94;4936504;29;20470;-69
2022/11/22 09:01:57;;;;;;;10.10;3.47;;;;;;;9.88;62.01;99284.00;4935795;29;20106;-69
2022/11/22 09:04:24;;;;;;;10.95;3.08;;;;;;;9.92;61.84;99285.41;4936130;29;20787;-68
2022/11/22 09:06:51;;;;;;;10.35;3.30;;;;;;;9.94;61.80;99285.25;4919042;29;20130;-69
2022/11/22 09:09:37;;;;;;;11.98;2.72;;;;;;;10.00;61.99;99282.00;4906360;29;20378;-69
2022/11/22 09:12:04;;;;;;;10.02;2.58;;;;;;;10.02;61.88;99280.03;4919987;29;20044;-69
2022/11/22 09:14:31;;;;;;;10.43;2.75;;;;;;;10.06;61.79;99286.81;4936457;29;20056;-66
2022/11/22 09:16:57;;;;;;;11.63;2.72;;;;;;;10.08;61.69;99285.66;4925592;29;20054;-69
2022/11/22 09:19:24;;;;;;;10.77;2.92;;;;;;;10.10;61.71;99291.72;4916883;29;20044;-68
2022/11/22 09:21:50;;;;;;;10.55;2.72;;;;;;;10.11;61.67;99293.41;4936223;29;20099;-69
2022/11/22 09:24:17;;;;;;;12.93;2.40;;;;;;;10.16;61.45;99290.31;4928503;29;20055;-68
2022/11/22 09:26:43;;;;;;;7.22;2.65;;;;;;;10.17;61.71;99278.59;4936772;29;20039;-69
2022/11/22 09:29:10;;;;;;;8.80;2.50;;;;;;;10.19;61.39;99293.53;4904129;29;20111;-69
2022/11/22 09:31:37;;;;;;;9.45;2.45;;;;;;;10.22;61.65;99292.44;4936714;29;20039;-69
2022/11/22 09:34:04;;;;;;;9.48;2.78;;;;;;;10.26;61.51;99303.72;4912017;29;20458;-70
2022/11/22 09:36:30;;;;;;;7.15;2.75;;;;;;;10.30;61.77;99300.63;4923599;29;20049;-70
2022/11/22 09:38:57;;;;;;;7.20;2.58;;;;;;;10.34;61.58;99301.16;4935804;29;20577;-75
2022/11/22 09:41:43;;;;;;;6.30;2.13;;;;;;;10.40;61.70;99300.59;4936096;29;20043;-67
2022/11/22 09:44:30;;;;;;;7.40;3.13;;;;;;;10.45;61.41;99301.03;4917149;29;20036;-74
2022/11/22 09:47:16;;;;;;;9.35;2.80;;;;;;;10.49;61.48;99302.44;4919895;29;20567;-68
2022/11/22 09:50:01;;;;;;;;;;;;;;;10.55;61.28;99306.38;4898970;29;20049;-74
2022/11/22 09:52:47;;;;;;;8.68;2.45;;;;;;;10.59;61.06;99307.78;4898627;29;20369;-71
2022/11/22 09:55:27;;;;;;;5.70;2.50;;;;;;;10.56;61.09;99300.84;4911449;29;20048;-71
2022/11/22 09:58:35;;;;;;;8.23;2.40;;;;;;;10.54;61.05;99291.25;4899762;29;20413;-69
2022/11/22 10:01:41;;;;;;;9.35;2.30;;;;;;;10.57;61.36;99278.38;4916768;29;20510;-70
2022/11/22 10:04:18;;;;;;;7.43;2.22;;;;;;;10.62;61.13;99281.47;4881558;29;20044;-71
2022/11/22 10:06:50;;;;;;;7.10;2.08;;;;;;;10.67;61.20;99283.72;4909465;29;20136;-70
2022/11/22 10:09:53;;;;;;;6.05;2.00;;;;;;;10.73;60.99;99286.66;4917406;29;20056;-69
2022/11/22 10:12:30;;;;;;;4.95;1.77;;;;;;;10.78;61.23;99286.22;4919919;29;20040;-70
2022/11/22 10:15:18;;;;;;;4.63;2.47;;;;;;;10.79;60.88;99288.75;4936168;29;20044;-70
2022/11/22 10:17:48;;;;;;;4.93;1.98;;;;;;;10.82;60.77;99274.19;4936236;29;20497;-69
2022/11/22 10:20:16;;;;;;;5.95;1.92;;;;;;;10.85;60.89;99287.31;4936484;29;20047;-69
2022/11/22 10:22:57;;;;;;;3.78;1.60;;;;;;;10.87;60.73;99288.00;4912265;29;20499;-69
2022/11/22 10:25:40;;;;;;;5.03;2.15;;;;;;;10.91;60.59;99291.22;4892543;29;20107;-70
2022/11/22 10:28:22;;;;;;;5.53;1.55;;;;;;;10.92;60.64;99283.03;4917234;29;20051;-70
2022/11/22 10:31:03;;;;;;;4.55;1.70;;;;;;;10.94;60.63;99286.41;4901416;29;20044;-70
2022/11/22 10:33:39;;;;;;;5.10;1.83;;;;;;;10.97;60.58;99274.53;4929353;29;20066;-70
2022/11/22 10:36:45;;;;;;;3.78;1.77;;;;;;;10.97;60.56;99283.44;4923224;29;20068;-68
2022/11/22 10:39:17;;;;;;;4.28;1.58;;;;;;;10.98;60.48;99281.59;4900495;29;20044;-69
2022/11/22 10:41:56;;;;;;;4.95;1.90;;;;;;;10.95;60.22;99277.34;4916460;29;20443;-69
2022/11/22 10:44:29;;;;;;;5.88;1.65;;;;;;;10.99;60.26;99275.22;4899949;29;20060;-70
2022/11/22 10:47:16;;;;;;;4.88;1.77;;;;;;;10.99;60.28;99272.53;4915533;29;20489;-69
2022/11/22 10:49:59;;;;;;;3.58;1.75;;;;;;;11.00;60.32;99268.84;4901062;29;20056;-70
2022/11/22 10:52:54;;;;;;;5.22;1.70;;;;;;;11.03;60.13;99260.50;4919944;29;20054;-70
2022/11/22 10:55:41;;;;;;;4.85;1.70;;;;;;;11.03;60.40;99258.66;4912764;29;20115;-69
2022/11/22 10:58:20;;;;;;;3.50;1.38;;;;;;;11.05;60.53;99256.66;4910665;29;20079;-70
2022/11/22 11:00:54;;;;;;;5.03;1.73;;;;;;;11.07;60.14;99254.66;4907556;29;20059;-71
2022/11/22 11:03:37;;;;;;;3.55;1.50;;;;;;;11.11;60.05;99249.84;4910148;29;20088;-70
2022/11/22 11:06:13;;;;;;;2.97;1.60;;;;;;;11.17;60.20;99251.09;4917040;29;20048;-69
2022/11/22 11:09:08;;;;;;;4.20;1.45;;;;;;;11.20;60.01;99246.28;4918427;29;20459;-69
2022/11/22 11:11:54;;;;;;;2.83;1.50;;;;;;;11.24;60.05;99242.28;4920114;29;20055;-70
2022/11/22 11:14:59;;;;;;;4.85;1.40;;;;;;;11.28;60.07;99234.75;4920389;29;20052;-69
2022/11/22 11:17:30;;;;;;;4.28;1.90;;;;;;;11.32;59.76;99241.50;4898453;29;20116;-70
2022/11/22 11:20:02;;;;;;;3.35;1.20;;;;;;;11.34;59.71;99243.06;4920411;29;20048;-70
2022/11/22 11:22:32;;;;;;;3.03;1.42;;;;;;;11.36;59.85;99238.38;4901016;29;20048;-69
2022/11/22 11:25:33;;;;;;;2.30;1.00;;;;;;;11.40;59.56;99237.06;4900448;29;20104;-69
2022/11/22 11:28:07;;;;;;;2.95;1.20;;;;;;;11.46;59.78;99230.22;4907541;29;20067;-70
2022/11/22 11:30:44;;;;;;;3.08;1.00;;;;;;;11.52;59.39;99234.16;4919815;29;20048;-69
2022/11/22 11:33:30;;;;;;;3.10;1.15;;;;;;;11.56;59.41;99228.31;4885841;29;20056;-70
2022/11/22 11:36:03;;;;;;;2.33;1.15;;;;;;;11.61;59.65;99219.78;4887335;29;20071;-70
2022/11/22 11:38:47;;;;;;;2.17;1.33;;;;;;;11.66;59.44;99214.78;4920063;29;20059;-70
2022/11/22 11:41:31;;;;;;;3.88;1.63;;;;;;;11.68;59.03;99218.16;4919857;29;20044;-71
2022/11/22 11:44:04;;;;;;;1.80;1.10;;;;;;;11.70;59.03;99217.00;4902414;29;20490;-70
2022/11/22 11:46:39;;;;;;;1.75;1.00;;;;;;;11.73;59.18;99221.22;4919352;29;20036;-70
2022/11/22 11:49:16;;;;;;;;;;;;;;;11.79;58.97;99223.31;4903170;29;20048;-69
2022/11/22 11:51:58;;;;;;;3.05;1.13;;;;;;;11.83;58.82;99219.31;4918817;29;20385;-71
2022/11/22 11:54:29;;;;;;;2.38;1.00;;;;;;;11.82;58.87;99227.53;4938218;29;20095;-69
2022/11/22 11:56:58;;;;;;;3.78;1.23;;;;;;;11.80;58.61;99218.78;4937645;29;20051;-69
2022/11/22 11:59:42;;;;;;;1.63;0.75;;;;;;;11.77;58.49;99211.84;4938238;29;20048;-69